sensor_id;sensor_type;location;lat;lon;timestamp;temperature;humidity
21565;DHT22;10943;48.738;9.320;2022-11-15T00:00:47;11.50;99.90
21565;DHT22;10943;48.738;9.320;2022-11-15T00:03:33;11.50;99.90
21565;DHT22;10943;48.738;9.320;2022-11-15T00:06:20;11.60;99.90
21565;DHT22;10943;48.738;9.320;2022-11-15T00:09:05;11.50;99.90
21565;DHT22;10943;48.738;9.320;2022-11-15T00:11:51;11.60;99.90
21565;DHT22;10943;48.738;9.320;2022-11-15T00:14:37;11.60;99.90
21565;DHT22;10943;48.738;9.320;2022-11-15T00:17:23;11.50;99.90
21565;DHT22;10943;48.738;9.320;2022-11-15T00:20:09;11.50;99.90
21565;DHT22;10943;48.738;9.320;2022-11-15T00:22:56;11.50;99.90
21565;DHT22;10943;48.738;9.320;2022-11-15T00:25:44;11.40;99.90
21565;DHT22;10943;48.738;9.320;2022-11-15T00:28:30;11.50;99.90
21565;DHT22;10943;48.738;9.320;2022-11-15T00:31:16;11.50;99.90
21565;DHT22;10943;48.738;9.320;2022-11-15T00:34:02;11.50;99.90
21565;DHT22;10943;48.738;9.320;2022-11-15T00:36:48;11.60;99.90
21565;DHT22;10943;48.738;9.320;2022-11-15T00:39:34;11.50;99.90
21565;DHT22;10943;48.738;9.320;2022-11-15T00:42:20;11.50;99.90
21565;DHT22;10943;48.738;9.320;2022-11-15T00:45:06;11.50;99.90
21565;DHT22;10943;48.738;9.320;2022-11-15T00:47:53;11.50;99.90
21565;DHT22;10943;48.738;9.320;2022-11-15T00:50:41;11.50;99.90
21565;DHT22;10943;48.738;9.320;2022-11-15T00:53:28;11.50;99.90
21565;DHT22;10943;48.738;9.320;2022-11-15T00:56:14;11.50;99.90
21565;DHT22;10943;48.738;9.320;2022-11-15T00:58:59;11.30;99.90
21565;DHT22;10943;48.738;9.320;2022-11-15T01:01:45;11.10;99.90
21565;DHT22;10943;48.738;9.320;2022-11-15T01:04:31;11.20;99.90
21565;DHT22;10943;48.738;9.320;2022-11-15T01:07:17;11.20;99.90
21565;DHT22;10943;48.738;9.320;2022-11-15T01:10:04;11.00;99.90
21565;DHT22;10943;48.738;9.320;2022-11-15T01:12:51;10.90;99.90
21565;DHT22;10943;48.738;9.320;2022-11-15T01:15:41;10.90;99.90
21565;DHT22;10943;48.738;9.320;2022-11-15T01:18:27;10.60;99.90
21565;DHT22;10943;48.738;9.320;2022-11-15T01:21:15;10.50;99.90
21565;DHT22;10943;48.738;9.320;2022-11-15T01:24:06;10.40;99.90
21565;DHT22;10943;48.738;9.320;2022-11-15T01:26:53;10.20;99.90
21565;DHT22;10943;48.738;9.320;2022-11-15T01:29:39;10.10;99.90
21565;DHT22;10943;48.738;9.320;2022-11-15T01:32:25;10.30;99.90
21565;DHT22;10943;48.738;9.320;2022-11-15T01:35:11;10.30;99.90
21565;DHT22;10943;48.738;9.320;2022-11-15T01:37:56;10.20;99.90
21565;DHT22;10943;48.738;9.320;2022-11-15T01:40:46;10.20;99.90
21565;DHT22;10943;48.738;9.320;2022-11-15T01:43:35;10.20;99.90
21565;DHT22;10943;48.738;9.320;2022-11-15T01:49:19;10.10;99.90
21565;DHT22;10943;48.738;9.320;2022-11-15T01:52:11;10.10;99.90
21565;DHT22;10943;48.738;9.320;2022-11-15T01:58:05;10.00;99.90
21565;DHT22;10943;48.738;9.320;2022-11-15T02:00:52;9.80;99.90
21565;DHT22;10943;48.738;9.320;2022-11-15T02:03:46;9.80;99.90
21565;DHT22;10943;48.738;9.320;2022-11-15T02:06:39;9.80;99.90
21565;DHT22;10943;48.738;9.320;2022-11-15T02:09:26;9.80;99.90
21565;DHT22;10943;48.738;9.320;2022-11-15T02:12:14;9.80;99.90
21565;DHT22;10943;48.738;9.320;2022-11-15T02:15:06;9.70;99.90
21565;DHT22;10943;48.738;9.320;2022-11-15T02:18:17;9.70;99.90
21565;DHT22;10943;48.738;9.320;2022-11-15T02:29:37;9.60;99.90
21565;DHT22;10943;48.738;9.320;2022-11-15T02:32:52;9.60;99.90
21565;DHT22;10943;48.738;9.320;2022-11-15T02:36:00;9.60;99.90
21565;DHT22;10943;48.738;9.320;2022-11-15T02:38:59;9.50;99.90
21565;DHT22;10943;48.738;9.320;2022-11-15T02:42:07;9.50;99.90
21565;DHT22;10943;48.738;9.320;2022-11-15T02:45:33;9.30;99.90
21565;DHT22;10943;48.738;9.320;2022-11-15T02:48:26;9.40;99.90
21565;DHT22;10943;48.738;9.320;2022-11-15T02:51:12;9.40;99.90
21565;DHT22;10943;48.738;9.320;2022-11-15T02:53:59;9.30;99.90
21565;DHT22;10943;48.738;9.320;2022-11-15T02:56:45;9.40;99.90
21565;DHT22;10943;48.738;9.320;2022-11-15T03:13:46;9.50;99.90
21565;DHT22;10943;48.738;9.320;2022-11-15T03:20:02;9.80;99.90
21565;DHT22;10943;48.738;9.320;2022-11-15T03:22:53;9.70;99.90
21565;DHT22;10943;48.738;9.320;2022-11-15T03:25:47;9.80;99.90
21565;DHT22;10943;48.738;9.320;2022-11-15T03:28:38;9.70;99.90
21565;DHT22;10943;48.738;9.320;2022-11-15T03:31:36;9.90;99.90
21565;DHT22;10943;48.738;9.320;2022-11-15T03:34:46;9.80;99.90
21565;DHT22;10943;48.738;9.320;2022-11-15T03:37:54;9.70;99.90
21565;DHT22;10943;48.738;9.320;2022-11-15T03:40:58;9.70;99.90
21565;DHT22;10943;48.738;9.320;2022-11-15T03:43:54;9.60;99.90
21565;DHT22;10943;48.738;9.320;2022-11-15T03:46:59;9.60;99.90
21565;DHT22;10943;48.738;9.320;2022-11-15T03:49:59;9.40;99.90
21565;DHT22;10943;48.738;9.320;2022-11-15T03:52:55;9.40;99.90
21565;DHT22;10943;48.738;9.320;2022-11-15T03:55:42;9.60;99.90
21565;DHT22;10943;48.738;9.320;2022-11-15T03:58:29;9.60;99.90
21565;DHT22;10943;48.738;9.320;2022-11-15T04:01:15;9.40;99.90
21565;DHT22;10943;48.738;9.320;2022-11-15T04:04:02;9.60;99.90
21565;DHT22;10943;48.738;9.320;2022-11-15T04:06:50;9.70;99.90
21565;DHT22;10943;48.738;9.320;2022-11-15T04:09:37;9.80;99.90
21565;DHT22;10943;48.738;9.320;2022-11-15T04:12:45;9.70;99.90
21565;DHT22;10943;48.738;9.320;2022-11-15T04:15:34;9.50;99.90
21565;DHT22;10943;48.738;9.320;2022-11-15T04:18:21;9.50;99.90
21565;DHT22;10943;48.738;9.320;2022-11-15T04:21:08;9.40;99.90
21565;DHT22;10943;48.738;9.320;2022-11-15T04:24:13;9.30;99.90
21565;DHT22;10943;48.738;9.320;2022-11-15T04:27:00;9.40;99.90
21565;DHT22;10943;48.738;9.320;2022-11-15T04:29:46;9.40;99.90
21565;DHT22;10943;48.738;9.320;2022-11-15T04:32:39;9.30;99.90
21565;DHT22;10943;48.738;9.320;2022-11-15T04:35:52;9.30;99.90
21565;DHT22;10943;48.738;9.320;2022-11-15T04:39:01;9.30;99.90
21565;DHT22;10943;48.738;9.320;2022-11-15T04:41:47;9.00;99.90
21565;DHT22;10943;48.738;9.320;2022-11-15T04:44:36;8.90;99.90
21565;DHT22;10943;48.738;9.320;2022-11-15T04:47:23;8.90;99.90
21565;DHT22;10943;48.738;9.320;2022-11-15T04:50:09;8.90;99.90
21565;DHT22;10943;48.738;9.320;2022-11-15T04:53:03;9.00;99.90
21565;DHT22;10943;48.738;9.320;2022-11-15T04:55:51;9.10;99.90
21565;DHT22;10943;48.738;9.320;2022-11-15T04:58:37;9.20;99.90
21565;DHT22;10943;48.738;9.320;2022-11-15T05:01:23;9.30;99.90
21565;DHT22;10943;48.738;9.320;2022-11-15T05:04:11;9.40;99.90
21565;DHT22;10943;48.738;9.320;2022-11-15T05:07:06;9.40;99.90
21565;DHT22;10943;48.738;9.320;2022-11-15T05:09:51;9.20;99.90
21565;DHT22;10943;48.738;9.320;2022-11-15T05:12:39;9.20;99.90
21565;DHT22;10943;48.738;9.320;2022-11-15T05:15:25;9.10;99.90
21565;DHT22;10943;48.738;9.320;2022-11-15T05:18:11;9.10;99.90
21565;DHT22;10943;48.738;9.320;2022-11-15T05:21:04;9.00;99.90
21565;DHT22;10943;48.738;9.320;2022-11-15T05:23:58;9.10;99.90
21565;DHT22;10943;48.738;9.320;2022-11-15T05:26:51;9.20;99.90
21565;DHT22;10943;48.738;9.320;2022-11-15T05:29:38;8.90;99.90
21565;DHT22;10943;48.738;9.320;2022-11-15T05:32:24;9.00;99.90
21565;DHT22;10943;48.738;9.320;2022-11-15T05:35:32;9.10;99.90
21565;DHT22;10943;48.738;9.320;2022-11-15T05:38:24;9.10;99.90
21565;DHT22;10943;48.738;9.320;2022-11-15T05:41:12;9.10;99.90
21565;DHT22;10943;48.738;9.320;2022-11-15T05:44:01;9.10;99.90
21565;DHT22;10943;48.738;9.320;2022-11-15T05:46:57;9.10;99.90
21565;DHT22;10943;48.738;9.320;2022-11-15T05:49:48;9.10;99.90
21565;DHT22;10943;48.738;9.320;2022-11-15T05:52:37;9.00;99.90
21565;DHT22;10943;48.738;9.320;2022-11-15T05:55:25;9.10;99.90
21565;DHT22;10943;48.738;9.320;2022-11-15T05:58:12;9.10;99.90
21565;DHT22;10943;48.738;9.320;2022-11-15T06:00:58;9.00;99.90
21565;DHT22;10943;48.738;9.320;2022-11-15T06:03:45;9.00;99.90
21565;DHT22;10943;48.738;9.320;2022-11-15T06:06:34;9.00;99.90
21565;DHT22;10943;48.738;9.320;2022-11-15T06:09:21;9.00;99.90
21565;DHT22;10943;48.738;9.320;2022-11-15T06:12:09;9.10;99.90
21565;DHT22;10943;48.738;9.320;2022-11-15T06:14:55;9.00;99.90
21565;DHT22;10943;48.738;9.320;2022-11-15T06:17:43;8.90;99.90
21565;DHT22;10943;48.738;9.320;2022-11-15T06:20:30;8.60;99.90
21565;DHT22;10943;48.738;9.320;2022-11-15T06:23:17;8.60;99.90
21565;DHT22;10943;48.738;9.320;2022-11-15T06:26:03;8.40;99.90
21565;DHT22;10943;48.738;9.320;2022-11-15T06:29:04;8.60;99.90
21565;DHT22;10943;48.738;9.320;2022-11-15T06:31:52;8.70;99.90
21565;DHT22;10943;48.738;9.320;2022-11-15T06:34:39;8.80;99.90
21565;DHT22;10943;48.738;9.320;2022-11-15T06:37:34;8.80;99.90
21565;DHT22;10943;48.738;9.320;2022-11-15T06:40:49;8.90;99.90
21565;DHT22;10943;48.738;9.320;2022-11-15T06:43:36;9.10;99.90
21565;DHT22;10943;48.738;9.320;2022-11-15T06:46:23;9.00;99.90
21565;DHT22;10943;48.738;9.320;2022-11-15T06:49:10;8.90;99.90
21565;DHT22;10943;48.738;9.320;2022-11-15T06:51:56;9.00;99.90
21565;DHT22;10943;48.738;9.320;2022-11-15T06:54:43;8.90;99.90
21565;DHT22;10943;48.738;9.320;2022-11-15T06:57:29;8.90;99.90
21565;DHT22;10943;48.738;9.320;2022-11-15T07:00:17;9.00;99.90
21565;DHT22;10943;48.738;9.320;2022-11-15T07:03:06;8.90;99.90
21565;DHT22;10943;48.738;9.320;2022-11-15T07:05:54;9.00;99.90
21565;DHT22;10943;48.738;9.320;2022-11-15T07:08:52;9.10;99.90
21565;DHT22;10943;48.738;9.320;2022-11-15T07:11:41;9.30;99.90
21565;DHT22;10943;48.738;9.320;2022-11-15T07:14:27;9.30;99.90
21565;DHT22;10943;48.738;9.320;2022-11-15T07:17:13;9.30;99.90
21565;DHT22;10943;48.738;9.320;2022-11-15T07:19:59;9.40;99.90
21565;DHT22;10943;48.738;9.320;2022-11-15T07:22:50;9.50;99.90
21565;DHT22;10943;48.738;9.320;2022-11-15T07:25:36;9.60;99.90
21565;DHT22;10943;48.738;9.320;2022-11-15T07:28:49;9.80;99.90
21565;DHT22;10943;48.738;9.320;2022-11-15T07:31:37;9.90;99.90
21565;DHT22;10943;48.738;9.320;2022-11-15T07:34:23;9.90;99.90
21565;DHT22;10943;48.738;9.320;2022-11-15T07:37:10;10.00;99.90
21565;DHT22;10943;48.738;9.320;2022-11-15T07:39:57;10.30;99.90
21565;DHT22;10943;48.738;9.320;2022-11-15T07:42:44;10.30;99.90
21565;DHT22;10943;48.738;9.320;2022-11-15T07:45:42;10.30;99.90
21565;DHT22;10943;48.738;9.320;2022-11-15T07:48:30;10.40;99.90
21565;DHT22;10943;48.738;9.320;2022-11-15T07:51:28;10.60;99.90
21565;DHT22;10943;48.738;9.320;2022-11-15T07:54:15;10.90;99.90
21565;DHT22;10943;48.738;9.320;2022-11-15T07:57:07;11.30;99.90
21565;DHT22;10943;48.738;9.320;2022-11-15T08:00:05;11.60;99.90
21565;DHT22;10943;48.738;9.320;2022-11-15T08:03:08;12.10;99.90
21565;DHT22;10943;48.738;9.320;2022-11-15T08:06:10;12.50;99.90
21565;DHT22;10943;48.738;9.320;2022-11-15T08:09:00;12.70;99.90
21565;DHT22;10943;48.738;9.320;2022-11-15T08:11:48;13.30;99.90
21565;DHT22;10943;48.738;9.320;2022-11-15T08:14:37;13.30;99.90
21565;DHT22;10943;48.738;9.320;2022-11-15T08:17:29;13.50;99.90
21565;DHT22;10943;48.738;9.320;2022-11-15T08:20:21;13.60;99.90
21565;DHT22;10943;48.738;9.320;2022-11-15T08:23:11;13.90;99.90
21565;DHT22;10943;48.738;9.320;2022-11-15T08:26:03;14.10;99.90
21565;DHT22;10943;48.738;9.320;2022-11-15T08:28:53;14.40;99.90
21565;DHT22;10943;48.738;9.320;2022-11-15T08:31:39;14.70;99.90
21565;DHT22;10943;48.738;9.320;2022-11-15T08:34:25;15.10;99.90
21565;DHT22;10943;48.738;9.320;2022-11-15T08:37:11;15.30;99.90
21565;DHT22;10943;48.738;9.320;2022-11-15T08:39:58;15.60;99.90
21565;DHT22;10943;48.738;9.320;2022-11-15T08:42:46;15.80;99.90
21565;DHT22;10943;48.738;9.320;2022-11-15T08:45:36;16.00;99.90
21565;DHT22;10943;48.738;9.320;2022-11-15T08:48:23;16.20;99.90
21565;DHT22;10943;48.738;9.320;2022-11-15T08:51:10;17.00;99.90
21565;DHT22;10943;48.738;9.320;2022-11-15T08:53:57;18.30;99.90
21565;DHT22;10943;48.738;9.320;2022-11-15T08:56:43;19.50;99.90
21565;DHT22;10943;48.738;9.320;2022-11-15T08:59:32;21.00;99.90
21565;DHT22;10943;48.738;9.320;2022-11-15T09:02:28;22.40;99.90
21565;DHT22;10943;48.738;9.320;2022-11-15T09:05:20;24.20;99.90
21565;DHT22;10943;48.738;9.320;2022-11-15T09:08:38;25.40;99.90
21565;DHT22;10943;48.738;9.320;2022-11-15T09:12:05;25.90;99.90
21565;DHT22;10943;48.738;9.320;2022-11-15T09:14:55;26.70;99.90
21565;DHT22;10943;48.738;9.320;2022-11-15T09:18:09;27.40;99.90
21565;DHT22;10943;48.738;9.320;2022-11-15T09:21:40;28.30;99.90
21565;DHT22;10943;48.738;9.320;2022-11-15T09:24:41;28.80;97.70
21565;DHT22;10943;48.738;9.320;2022-11-15T09:27:36;28.30;96.40
21565;DHT22;10943;48.738;9.320;2022-11-15T09:31:20;26.60;97.10
21565;DHT22;10943;48.738;9.320;2022-11-15T09:34:37;25.50;97.70
21565;DHT22;10943;48.738;9.320;2022-11-15T09:37:40;24.40;98.10
21565;DHT22;10943;48.738;9.320;2022-11-15T09:44:26;24.70;99.00
21565;DHT22;10943;48.738;9.320;2022-11-15T09:48:52;26.00;97.50
21565;DHT22;10943;48.738;9.320;2022-11-15T09:52:11;27.10;96.70
21565;DHT22;10943;48.738;9.320;2022-11-15T09:54:52;28.50;94.70
21565;DHT22;10943;48.738;9.320;2022-11-15T10:01:08;29.50;92.10
21565;DHT22;10943;48.738;9.320;2022-11-15T10:03:47;29.40;91.70
21565;DHT22;10943;48.738;9.320;2022-11-15T10:07:02;29.20;91.20
21565;DHT22;10943;48.738;9.320;2022-11-15T10:10:40;27.90;91.40
21565;DHT22;10943;48.738;9.320;2022-11-15T10:14:18;27.10;92.40
21565;DHT22;10943;48.738;9.320;2022-11-15T10:20:21;26.10;93.80
21565;DHT22;10943;48.738;9.320;2022-11-15T10:27:01;25.20;95.00
21565;DHT22;10943;48.738;9.320;2022-11-15T10:30:33;25.00;95.40
21565;DHT22;10943;48.738;9.320;2022-11-15T10:33:42;25.40;94.00
21565;DHT22;10943;48.738;9.320;2022-11-15T10:37:01;24.40;95.60
21565;DHT22;10943;48.738;9.320;2022-11-15T10:39:32;23.40;96.00
21565;DHT22;10943;48.738;9.320;2022-11-15T10:42:28;23.10;97.20
21565;DHT22;10943;48.738;9.320;2022-11-15T10:45:01;22.80;98.30
21565;DHT22;10943;48.738;9.320;2022-11-15T10:47:31;23.00;98.60
21565;DHT22;10943;48.738;9.320;2022-11-15T10:50:30;23.10;98.40
21565;DHT22;10943;48.738;9.320;2022-11-15T10:55:59;23.00;97.80
21565;DHT22;10943;48.738;9.320;2022-11-15T10:58:37;22.80;99.00
21565;DHT22;10943;48.738;9.320;2022-11-15T11:01:29;23.00;99.10
21565;DHT22;10943;48.738;9.320;2022-11-15T11:04:15;23.00;98.90
21565;DHT22;10943;48.738;9.320;2022-11-15T11:06:52;22.20;99.60
21565;DHT22;10943;48.738;9.320;2022-11-15T11:11:57;22.10;99.90
21565;DHT22;10943;48.738;9.320;2022-11-15T11:14:51;22.10;99.90
21565;DHT22;10943;48.738;9.320;2022-11-15T11:20:40;21.70;99.90
21565;DHT22;10943;48.738;9.320;2022-11-15T11:32:58;20.80;99.90
21565;DHT22;10943;48.738;9.320;2022-11-15T11:42:01;20.70;99.90
21565;DHT22;10943;48.738;9.320;2022-11-15T11:48:42;20.30;99.90
21565;DHT22;10943;48.738;9.320;2022-11-15T11:51:41;20.60;99.90
21565;DHT22;10943;48.738;9.320;2022-11-15T11:55:11;20.70;99.90
21565;DHT22;10943;48.738;9.320;2022-11-15T11:58:29;20.40;99.90
21565;DHT22;10943;48.738;9.320;2022-11-15T12:01:16;20.50;99.90
21565;DHT22;10943;48.738;9.320;2022-11-15T12:09:58;21.40;99.90
21565;DHT22;10943;48.738;9.320;2022-11-15T12:15:59;22.10;99.90
21565;DHT22;10943;48.738;9.320;2022-11-15T12:18:52;22.10;99.90
21565;DHT22;10943;48.738;9.320;2022-11-15T12:21:36;22.20;99.90
21565;DHT22;10943;48.738;9.320;2022-11-15T12:24:41;22.30;99.90
21565;DHT22;10943;48.738;9.320;2022-11-15T12:27:32;22.00;99.90
21565;DHT22;10943;48.738;9.320;2022-11-15T12:30:17;21.90;99.90
21565;DHT22;10943;48.738;9.320;2022-11-15T12:32:55;21.70;99.90
21565;DHT22;10943;48.738;9.320;2022-11-15T12:35:38;21.40;99.90
21565;DHT22;10943;48.738;9.320;2022-11-15T12:38:12;21.00;99.90
21565;DHT22;10943;48.738;9.320;2022-11-15T12:41:28;20.80;99.90
21565;DHT22;10943;48.738;9.320;2022-11-15T12:45:01;20.70;99.90
21565;DHT22;10943;48.738;9.320;2022-11-15T12:47:35;20.80;99.90
21565;DHT22;10943;48.738;9.320;2022-11-15T12:53:31;20.40;99.90
21565;DHT22;10943;48.738;9.320;2022-11-15T12:56:20;20.30;99.90
21565;DHT22;10943;48.738;9.320;2022-11-15T12:59:57;20.30;99.90
21565;DHT22;10943;48.738;9.320;2022-11-15T13:02:34;20.30;99.90
21565;DHT22;10943;48.738;9.320;2022-11-15T13:08:11;20.10;99.90
21565;DHT22;10943;48.738;9.320;2022-11-15T13:11:46;20.10;99.90
21565;DHT22;10943;48.738;9.320;2022-11-15T13:14:59;20.00;99.90
21565;DHT22;10943;48.738;9.320;2022-11-15T13:17:38;19.80;99.90
21565;DHT22;10943;48.738;9.320;2022-11-15T13:20:17;19.50;99.90
21565;DHT22;10943;48.738;9.320;2022-11-15T13:23:16;19.40;99.90
21565;DHT22;10943;48.738;9.320;2022-11-15T13:29:19;19.30;99.90
21565;DHT22;10943;48.738;9.320;2022-11-15T13:31:50;19.40;99.90
21565;DHT22;10943;48.738;9.320;2022-11-15T13:34:30;19.50;99.90
21565;DHT22;10943;48.738;9.320;2022-11-15T13:37:31;19.40;99.90
21565;DHT22;10943;48.738;9.320;2022-11-15T13:40:26;19.40;99.90
21565;DHT22;10943;48.738;9.320;2022-11-15T13:42:59;19.60;99.90
21565;DHT22;10943;48.738;9.320;2022-11-15T13:45:27;19.80;99.90
21565;DHT22;10943;48.738;9.320;2022-11-15T13:47:57;19.90;99.90
21565;DHT22;10943;48.738;9.320;2022-11-15T13:50:32;20.10;99.90
21565;DHT22;10943;48.738;9.320;2022-11-15T13:53:04;20.10;99.90
21565;DHT22;10943;48.738;9.320;2022-11-15T13:55:36;20.20;99.90
21565;DHT22;10943;48.738;9.320;2022-11-15T13:58:17;19.90;99.90
21565;DHT22;10943;48.738;9.320;2022-11-15T14:01:02;19.80;99.90
21565;DHT22;10943;48.738;9.320;2022-11-15T14:03:46;19.70;99.90
21565;DHT22;10943;48.738;9.320;2022-11-15T14:06:29;19.80;99.90
21565;DHT22;10943;48.738;9.320;2022-11-15T14:08:59;19.80;99.90
21565;DHT22;10943;48.738;9.320;2022-11-15T14:11:36;19.70;99.90
21565;DHT22;10943;48.738;9.320;2022-11-15T14:14:23;19.70;99.90
21565;DHT22;10943;48.738;9.320;2022-11-15T14:16:59;19.60;99.90
21565;DHT22;10943;48.738;9.320;2022-11-15T14:19:36;19.30;99.90
21565;DHT22;10943;48.738;9.320;2022-11-15T14:22:22;19.20;99.90
21565;DHT22;10943;48.738;9.320;2022-11-15T14:25:16;19.10;99.90
21565;DHT22;10943;48.738;9.320;2022-11-15T14:30:54;18.80;99.90
21565;DHT22;10943;48.738;9.320;2022-11-15T14:33:32;18.70;99.90
21565;DHT22;10943;48.738;9.320;2022-11-15T14:36:16;18.40;99.90
21565;DHT22;10943;48.738;9.320;2022-11-15T14:38:47;17.80;99.90
21565;DHT22;10943;48.738;9.320;2022-11-15T14:41:21;17.60;99.90
21565;DHT22;10943;48.738;9.320;2022-11-15T14:43:55;17.60;99.90
21565;DHT22;10943;48.738;9.320;2022-11-15T14:46:23;17.60;99.90
21565;DHT22;10943;48.738;9.320;2022-11-15T14:48:51;17.70;99.90
21565;DHT22;10943;48.738;9.320;2022-11-15T14:51:19;17.70;99.90
21565;DHT22;10943;48.738;9.320;2022-11-15T14:53:56;17.70;99.90
21565;DHT22;10943;48.738;9.320;2022-11-15T14:57:08;17.70;99.90
21565;DHT22;10943;48.738;9.320;2022-11-15T15:01:24;17.70;99.90
21565;DHT22;10943;48.738;9.320;2022-11-15T15:03:56;17.50;99.90
21565;DHT22;10943;48.738;9.320;2022-11-15T15:06:26;17.50;99.90
21565;DHT22;10943;48.738;9.320;2022-11-15T15:08:57;17.50;99.90
21565;DHT22;10943;48.738;9.320;2022-11-15T15:11:27;17.40;99.90
21565;DHT22;10943;48.738;9.320;2022-11-15T15:13:57;17.30;99.90
21565;DHT22;10943;48.738;9.320;2022-11-15T15:16:28;17.30;99.90
21565;DHT22;10943;48.738;9.320;2022-11-15T15:18:55;17.20;99.90
21565;DHT22;10943;48.738;9.320;2022-11-15T15:21:27;17.30;99.90
21565;DHT22;10943;48.738;9.320;2022-11-15T15:24:03;17.40;99.90
21565;DHT22;10943;48.738;9.320;2022-11-15T15:26:34;17.40;99.90
21565;DHT22;10943;48.738;9.320;2022-11-15T15:29:04;17.40;99.90
21565;DHT22;10943;48.738;9.320;2022-11-15T15:31:33;17.30;99.90
21565;DHT22;10943;48.738;9.320;2022-11-15T15:36:49;17.40;99.90
21565;DHT22;10943;48.738;9.320;2022-11-15T15:39:16;17.30;99.90
21565;DHT22;10943;48.738;9.320;2022-11-15T15:41:43;17.10;99.90
21565;DHT22;10943;48.738;9.320;2022-11-15T15:44:10;16.90;99.90
21565;DHT22;10943;48.738;9.320;2022-11-15T15:46:38;16.80;99.90
21565;DHT22;10943;48.738;9.320;2022-11-15T15:49:09;16.90;99.90
21565;DHT22;10943;48.738;9.320;2022-11-15T15:51:36;16.80;99.90
21565;DHT22;10943;48.738;9.320;2022-11-15T15:54:04;16.70;99.90
21565;DHT22;10943;48.738;9.320;2022-11-15T15:56:31;16.60;99.90
21565;DHT22;10943;48.738;9.320;2022-11-15T15:58:58;16.60;99.90
21565;DHT22;10943;48.738;9.320;2022-11-15T16:01:25;16.50;99.90
21565;DHT22;10943;48.738;9.320;2022-11-15T16:03:53;16.50;99.90
21565;DHT22;10943;48.738;9.320;2022-11-15T16:09:06;16.30;99.90
21565;DHT22;10943;48.738;9.320;2022-11-15T16:11:46;16.30;99.90
21565;DHT22;10943;48.738;9.320;2022-11-15T16:14:14;16.30;99.90
21565;DHT22;10943;48.738;9.320;2022-11-15T16:16:41;16.10;99.90
21565;DHT22;10943;48.738;9.320;2022-11-15T16:19:10;16.20;99.90
21565;DHT22;10943;48.738;9.320;2022-11-15T16:21:38;16.20;99.90
21565;DHT22;10943;48.738;9.320;2022-11-15T16:24:06;16.20;99.90
21565;DHT22;10943;48.738;9.320;2022-11-15T16:26:34;16.10;99.90
21565;DHT22;10943;48.738;9.320;2022-11-15T16:29:04;15.80;99.90
21565;DHT22;10943;48.738;9.320;2022-11-15T16:31:34;16.00;99.90
21565;DHT22;10943;48.738;9.320;2022-11-15T16:34:01;16.10;99.90
21565;DHT22;10943;48.738;9.320;2022-11-15T16:36:30;16.10;99.90
21565;DHT22;10943;48.738;9.320;2022-11-15T16:39:01;16.10;99.90
21565;DHT22;10943;48.738;9.320;2022-11-15T16:41:31;16.10;99.90
21565;DHT22;10943;48.738;9.320;2022-11-15T16:43:58;16.10;99.90
21565;DHT22;10943;48.738;9.320;2022-11-15T16:46:27;16.10;99.90
21565;DHT22;10943;48.738;9.320;2022-11-15T16:48:56;16.10;99.90
21565;DHT22;10943;48.738;9.320;2022-11-15T16:51:24;16.30;99.90
21565;DHT22;10943;48.738;9.320;2022-11-15T16:53:52;16.30;99.90
21565;DHT22;10943;48.738;9.320;2022-11-15T16:56:30;16.30;99.90
21565;DHT22;10943;48.738;9.320;2022-11-15T16:58:58;16.30;99.90
21565;DHT22;10943;48.738;9.320;2022-11-15T17:01:37;16.30;99.90
21565;DHT22;10943;48.738;9.320;2022-11-15T17:04:12;16.10;99.90
21565;DHT22;10943;48.738;9.320;2022-11-15T17:06:43;16.10;99.90
21565;DHT22;10943;48.738;9.320;2022-11-15T17:09:18;16.00;99.90
21565;DHT22;10943;48.738;9.320;2022-11-15T17:11:51;16.00;99.90
21565;DHT22;10943;48.738;9.320;2022-11-15T17:14:19;15.90;99.90
21565;DHT22;10943;48.738;9.320;2022-11-15T17:16:47;15.90;99.90
21565;DHT22;10943;48.738;9.320;2022-11-15T17:19:16;15.90;99.90
21565;DHT22;10943;48.738;9.320;2022-11-15T17:21:46;15.90;99.90
21565;DHT22;10943;48.738;9.320;2022-11-15T17:24:17;16.00;99.90
21565;DHT22;10943;48.738;9.320;2022-11-15T17:26:47;16.10;99.90
21565;DHT22;10943;48.738;9.320;2022-11-15T17:29:16;16.00;99.90
21565;DHT22;10943;48.738;9.320;2022-11-15T17:31:44;16.00;99.90
21565;DHT22;10943;48.738;9.320;2022-11-15T17:34:12;16.00;99.90
21565;DHT22;10943;48.738;9.320;2022-11-15T17:36:39;16.10;99.90
21565;DHT22;10943;48.738;9.320;2022-11-15T17:39:07;16.00;99.90
21565;DHT22;10943;48.738;9.320;2022-11-15T17:41:35;15.80;99.90
21565;DHT22;10943;48.738;9.320;2022-11-15T17:44:03;15.70;99.90
21565;DHT22;10943;48.738;9.320;2022-11-15T17:46:31;15.70;99.90
21565;DHT22;10943;48.738;9.320;2022-11-15T17:49:00;15.70;99.90
21565;DHT22;10943;48.738;9.320;2022-11-15T17:51:27;15.60;99.90
21565;DHT22;10943;48.738;9.320;2022-11-15T17:53:55;15.60;99.90
21565;DHT22;10943;48.738;9.320;2022-11-15T17:56:25;15.50;99.90
21565;DHT22;10943;48.738;9.320;2022-11-15T17:58:59;15.70;99.90
21565;DHT22;10943;48.738;9.320;2022-11-15T18:01:35;15.80;99.90
21565;DHT22;10943;48.738;9.320;2022-11-15T18:04:08;15.80;99.90
21565;DHT22;10943;48.738;9.320;2022-11-15T18:06:36;15.50;99.90
21565;DHT22;10943;48.738;9.320;2022-11-15T18:09:04;15.70;99.90
21565;DHT22;10943;48.738;9.320;2022-11-15T18:11:35;15.80;99.90
21565;DHT22;10943;48.738;9.320;2022-11-15T18:14:08;15.90;99.90
21565;DHT22;10943;48.738;9.320;2022-11-15T18:16:39;15.90;99.90
21565;DHT22;10943;48.738;9.320;2022-11-15T18:19:08;16.00;99.90
21565;DHT22;10943;48.738;9.320;2022-11-15T18:21:41;16.00;99.90
21565;DHT22;10943;48.738;9.320;2022-11-15T18:24:28;16.20;99.90
21565;DHT22;10943;48.738;9.320;2022-11-15T18:27:01;16.10;99.90
21565;DHT22;10943;48.738;9.320;2022-11-15T18:29:30;16.10;99.90
21565;DHT22;10943;48.738;9.320;2022-11-15T18:32:00;16.20;99.90
21565;DHT22;10943;48.738;9.320;2022-11-15T18:34:31;16.30;99.90
21565;DHT22;10943;48.738;9.320;2022-11-15T18:37:01;16.30;99.90
21565;DHT22;10943;48.738;9.320;2022-11-15T18:39:29;16.10;99.90
21565;DHT22;10943;48.738;9.320;2022-11-15T18:41:57;16.00;99.90
21565;DHT22;10943;48.738;9.320;2022-11-15T18:44:27;15.90;99.90
21565;DHT22;10943;48.738;9.320;2022-11-15T18:46:56;15.90;99.90
21565;DHT22;10943;48.738;9.320;2022-11-15T18:49:24;16.00;99.90
21565;DHT22;10943;48.738;9.320;2022-11-15T18:51:52;16.00;99.90
21565;DHT22;10943;48.738;9.320;2022-11-15T18:54:19;16.00;99.90
21565;DHT22;10943;48.738;9.320;2022-11-15T18:56:48;16.00;99.90
21565;DHT22;10943;48.738;9.320;2022-11-15T18:59:17;16.00;99.90
21565;DHT22;10943;48.738;9.320;2022-11-15T19:01:45;16.00;99.90
21565;DHT22;10943;48.738;9.320;2022-11-15T19:04:18;16.00;99.90
21565;DHT22;10943;48.738;9.320;2022-11-15T19:06:48;16.10;99.90
21565;DHT22;10943;48.738;9.320;2022-11-15T19:09:18;16.00;99.90
21565;DHT22;10943;48.738;9.320;2022-11-15T19:11:47;16.00;99.90
21565;DHT22;10943;48.738;9.320;2022-11-15T19:14:18;16.10;99.90